createdAt,value
2023-04-11T00:01:14.171Z,10.68
2023-04-11T00:05:01.169Z,7.10
2023-04-11T00:08:44.734Z,8.68
2023-04-11T00:12:31.622Z,10.40
2023-04-11T00:16:25.541Z,8.43
2023-04-11T00:20:19.414Z,11.20
2023-04-11T00:24:11.842Z,10.98
2023-04-11T00:27:57.577Z,9.33
2023-04-11T00:31:39.879Z,9.32
2023-04-11T00:35:35.383Z,12.80
2023-04-11T00:39:33.718Z,13.57
2023-04-11T00:43:16.020Z,10.23
2023-04-11T00:47:07.383Z,10.38
2023-04-11T00:50:56.199Z,11.45
2023-04-11T00:54:59.251Z,9.27
2023-04-11T00:58:43.938Z,10.27
2023-04-11T01:02:28.428Z,11.10
2023-04-11T01:06:16.932Z,9.07
2023-04-11T01:10:01.781Z,8.98
2023-04-11T01:18:50.260Z,12.40
2023-04-11T01:22:37.039Z,7.83
2023-04-11T01:26:22.095Z,8.13
2023-04-11T01:30:19.899Z,7.60
2023-04-11T01:34:11.320Z,10.83
2023-04-11T01:38:04.841Z,8.05
2023-04-11T01:41:50.323Z,7.65
2023-04-11T01:45:37.277Z,11.27
2023-04-11T01:49:20.669Z,8.15
2023-04-11T01:53:26.263Z,7.90
2023-04-11T01:57:10.114Z,7.63
2023-04-11T02:00:55.080Z,10.30
2023-04-11T02:04:40.785Z,14.68
2023-04-11T02:08:26.087Z,12.32
2023-04-11T02:12:20.632Z,12.80
2023-04-11T02:16:20.908Z,7.70
2023-04-11T02:20:08.351Z,7.53
2023-04-11T02:23:54.268Z,11.80
2023-04-11T02:27:36.728Z,13.40
2023-04-11T02:31:26.902Z,14.55
2023-04-11T02:35:33.583Z,8.52
2023-04-11T02:39:21.959Z,8.60
2023-04-11T02:43:11.382Z,12.02
2023-04-11T02:46:53.694Z,11.43
2023-04-11T02:50:39.171Z,7.90
2023-04-11T02:54:53.909Z,11.73
2023-04-11T02:58:45.824Z,9.30
2023-04-11T03:02:30.295Z,12.17
2023-04-11T03:06:15.453Z,13.77
2023-04-11T03:10:02.329Z,8.35
2023-04-11T03:14:01.756Z,10.40
2023-04-11T03:18:00.912Z,11.60
2023-04-11T03:21:43.116Z,3.97
2023-04-11T03:25:26.376Z,6.00
2023-04-11T03:29:18.684Z,5.13
2023-04-11T03:33:01.319Z,5.45
2023-04-11T03:36:43.875Z,4.05
2023-04-11T03:40:26.029Z,5.87
2023-04-11T03:44:11.954Z,4.57
2023-04-11T03:47:54.344Z,4.50
2023-04-11T03:51:39.620Z,7.10
2023-04-11T03:55:24.031Z,4.80
2023-04-11T03:59:06.220Z,5.03
2023-04-11T04:02:49.784Z,4.47
2023-04-11T04:06:32.177Z,4.93
2023-04-11T04:10:19.238Z,8.23
2023-04-11T04:14:03.577Z,5.97
2023-04-11T04:17:45.781Z,3.73
2023-04-11T04:21:33.994Z,5.28
2023-04-11T04:25:17.060Z,5.68
2023-04-11T04:29:06.025Z,4.70
2023-04-11T04:32:59.301Z,7.90
2023-04-11T04:36:48.076Z,6.95
2023-04-11T04:40:32.909Z,4.35
2023-04-11T04:44:19.838Z,8.43
2023-04-11T04:48:03.137Z,9.48
2023-04-11T04:51:48.437Z,7.80
2023-04-11T04:55:30.678Z,10.10
2023-04-11T04:59:15.898Z,6.35
2023-04-11T05:03:01.717Z,9.80
2023-04-11T05:06:47.131Z,8.02
2023-04-11T05:10:29.344Z,7.93
2023-04-11T05:14:11.444Z,8.50
2023-04-11T05:17:56.218Z,5.75
2023-04-11T05:21:41.760Z,6.00
2023-04-11T05:25:27.636Z,8.02
2023-04-11T05:29:13.659Z,9.27
2023-04-11T05:37:07.291Z,7.85
2023-04-11T05:46:08.016Z,8.10
2023-04-11T05:50:26.101Z,12.97
2023-04-11T05:54:09.593Z,10.63
2023-04-11T05:58:14.659Z,9.05
2023-04-11T06:01:57.165Z,7.68
2023-04-11T06:06:07.874Z,8.93
2023-04-11T06:09:50.725Z,11.35
2023-04-11T06:30:52.862Z,10.00
2023-04-11T06:34:37.140Z,8.85
2023-04-11T06:38:38.297Z,9.90
2023-04-11T06:42:20.726Z,9.27
2023-04-11T06:46:02.904Z,7.37
2023-04-11T06:49:55.935Z,8.80
2023-04-11T06:53:41.813Z,11.05
2023-04-11T06:57:58.736Z,9.97
2023-04-11T07:01:46.821Z,7.38
2023-04-11T07:05:52.910Z,6.85
2023-04-11T07:23:55.276Z,5.20
2023-04-11T07:32:02.874Z,6.85
2023-04-11T22:16:13.186Z,22.23
2023-04-11T23:17:10.241Z,20.88
2023-04-11T23:20:53.298Z,12.70
2023-04-11T23:24:35.795Z,14.60
2023-04-11T23:28:27.230Z,13.75
2023-04-11T23:32:09.628Z,17.05
2023-04-11T23:35:52.457Z,15.37
2023-04-11T23:39:36.954Z,13.05
2023-04-11T23:43:19.351Z,12.20
2023-04-11T23:47:03.828Z,17.83
2023-04-11T23:50:46.035Z,17.55
2023-04-11T23:54:31.487Z,16.38
2023-04-11T23:58:17.407Z,20.97
